sensor_id;sensor_type;location;lat;lon;timestamp;pressure;altitude;pressure_sealevel;temperature;humidity
11041;BME280;5573;49.592;8.662;2022-10-16T00:01:20;99637.56;;;16.29;100.00
11041;BME280;5573;49.592;8.662;2022-10-16T00:04:09;99643.41;;;16.34;100.00
11041;BME280;5573;49.592;8.662;2022-10-16T00:06:58;99642.53;;;16.37;100.00
11041;BME280;5573;49.592;8.662;2022-10-16T00:09:46;99647.00;;;16.31;100.00
11041;BME280;5573;49.592;8.662;2022-10-16T00:12:34;99645.09;;;16.28;100.00
11041;BME280;5573;49.592;8.662;2022-10-16T00:15:22;99639.56;;;16.28;100.00
11041;BME280;5573;49.592;8.662;2022-10-16T00:18:10;99648.97;;;16.34;100.00
11041;BME280;5573;49.592;8.662;2022-10-16T00:21:02;99641.41;;;16.35;100.00
11041;BME280;5573;49.592;8.662;2022-10-16T00:23:52;99630.00;;;16.29;100.00
11041;BME280;5573;49.592;8.662;2022-10-16T00:26:40;99639.56;;;16.28;100.00
11041;BME280;5573;49.592;8.662;2022-10-16T00:29:28;99634.06;;;16.24;100.00
11041;BME280;5573;49.592;8.662;2022-10-16T00:32:17;99640.75;;;16.27;100.00
11041;BME280;5573;49.592;8.662;2022-10-16T00:35:05;99594.88;;;15.99;100.00
11041;BME280;5573;49.592;8.662;2022-10-16T00:37:53;99630.00;;;16.29;100.00
11041;BME280;5573;49.592;8.662;2022-10-16T00:40:42;99636.34;;;16.30;100.00
11041;BME280;5573;49.592;8.662;2022-10-16T00:43:37;99634.84;;;16.25;100.00
11041;BME280;5573;49.592;8.662;2022-10-16T00:46:27;99621.47;;;16.20;100.00
11041;BME280;5573;49.592;8.662;2022-10-16T00:49:18;99631.63;;;16.26;100.00
11041;BME280;5573;49.592;8.662;2022-10-16T00:52:07;99634.41;;;16.26;100.00
11041;BME280;5573;49.592;8.662;2022-10-16T00:54:56;99631.69;;;16.23;100.00
11041;BME280;5573;49.592;8.662;2022-10-16T00:57:47;99605.84;;;16.06;100.00
11041;BME280;5573;49.592;8.662;2022-10-16T01:00:35;99643.50;;;16.27;100.00
11041;BME280;5573;49.592;8.662;2022-10-16T01:03:29;99644.03;;;16.22;100.00
11041;BME280;5573;49.592;8.662;2022-10-16T01:06:25;99649.16;;;16.23;100.00
11041;BME280;5573;49.592;8.662;2022-10-16T01:09:22;99616.94;;;16.06;100.00
11041;BME280;5573;49.592;8.662;2022-10-16T01:12:15;99645.16;;;16.24;100.00
11041;BME280;5573;49.592;8.662;2022-10-16T01:15:10;99616.88;;;16.10;100.00
11041;BME280;5573;49.592;8.662;2022-10-16T01:18:04;99639.97;;;16.26;100.00
11041;BME280;5573;49.592;8.662;2022-10-16T01:21:00;99640.38;;;16.25;100.00
11041;BME280;5573;49.592;8.662;2022-10-16T01:23:58;99647.09;;;16.28;100.00
11041;BME280;5573;49.592;8.662;2022-10-16T01:27:21;99650.72;;;16.24;100.00
11041;BME280;5573;49.592;8.662;2022-10-16T01:30:17;99651.38;;;16.32;100.00
11041;BME280;5573;49.592;8.662;2022-10-16T01:33:10;99662.03;;;16.34;100.00
11041;BME280;5573;49.592;8.662;2022-10-16T01:36:02;99653.28;;;16.35;100.00
11041;BME280;5573;49.592;8.662;2022-10-16T01:38:57;99657.69;;;16.33;100.00
11041;BME280;5573;49.592;8.662;2022-10-16T01:41:52;99665.59;;;16.34;100.00
11041;BME280;5573;49.592;8.662;2022-10-16T01:44:43;99658.97;;;16.28;100.00
11041;BME280;5573;49.592;8.662;2022-10-16T01:47:34;99676.03;;;16.26;100.00
11041;BME280;5573;49.592;8.662;2022-10-16T01:50:24;99682.94;;;16.18;100.00
11041;BME280;5573;49.592;8.662;2022-10-16T01:53:13;99681.28;;;16.21;100.00
11041;BME280;5573;49.592;8.662;2022-10-16T01:56:06;99684.06;;;16.21;100.00
11041;BME280;5573;49.592;8.662;2022-10-16T01:59:00;99690.41;;;16.21;100.00
11041;BME280;5573;49.592;8.662;2022-10-16T02:01:54;99674.91;;;16.24;100.00
11041;BME280;5573;49.592;8.662;2022-10-16T02:04:46;99590.06;;;15.79;100.00
11041;BME280;5573;49.592;8.662;2022-10-16T02:07:35;99669.34;;;16.24;100.00
11041;BME280;5573;49.592;8.662;2022-10-16T02:10:23;99662.84;;;16.11;100.00
11041;BME280;5573;49.592;8.662;2022-10-16T02:13:15;99667.41;;;16.21;100.00
11041;BME280;5573;49.592;8.662;2022-10-16T02:16:05;99673.03;;;16.17;100.00
11041;BME280;5573;49.592;8.662;2022-10-16T02:18:55;99655.94;;;16.19;100.00
11041;BME280;5573;49.592;8.662;2022-10-16T02:21:48;99657.94;;;16.18;100.00
11041;BME280;5573;49.592;8.662;2022-10-16T02:24:43;99651.63;;;16.18;100.00
11041;BME280;5573;49.592;8.662;2022-10-16T02:27:39;99643.72;;;16.16;100.00
11041;BME280;5573;49.592;8.662;2022-10-16T02:30:33;99647.22;;;16.20;100.00
11041;BME280;5573;49.592;8.662;2022-10-16T02:33:24;99656.31;;;16.21;100.00
11041;BME280;5573;49.592;8.662;2022-10-16T02:36:14;99656.13;;;16.32;100.00
11041;BME280;5573;49.592;8.662;2022-10-16T02:39:03;99657.91;;;16.42;100.00
11041;BME280;5573;49.592;8.662;2022-10-16T02:41:52;99662.28;;;16.43;100.00
11041;BME280;5573;49.592;8.662;2022-10-16T02:44:40;99664.53;;;16.48;100.00
11041;BME280;5573;49.592;8.662;2022-10-16T02:47:27;99650.50;;;16.35;100.00
11041;BME280;5573;49.592;8.662;2022-10-16T02:50:16;99658.56;;;16.50;100.00
11041;BME280;5573;49.592;8.662;2022-10-16T02:53:05;99667.81;;;16.43;100.00
11041;BME280;5573;49.592;8.662;2022-10-16T02:55:53;99667.06;;;16.42;100.00
11041;BME280;5573;49.592;8.662;2022-10-16T02:58:41;99661.50;;;16.42;100.00
11041;BME280;5573;49.592;8.662;2022-10-16T03:01:30;99666.31;;;16.38;100.00
11041;BME280;5573;49.592;8.662;2022-10-16T03:04:18;99660.47;;;16.33;100.00
11041;BME280;5573;49.592;8.662;2022-10-16T03:07:06;99677.78;;;16.40;100.00
11041;BME280;5573;49.592;8.662;2022-10-16T03:09:55;99677.50;;;16.35;100.00
11041;BME280;5573;49.592;8.662;2022-10-16T03:12:44;99674.66;;;16.38;100.00
11041;BME280;5573;49.592;8.662;2022-10-16T03:15:32;99670.50;;;16.26;100.00
11041;BME280;5573;49.592;8.662;2022-10-16T03:18:20;99663.44;;;16.22;100.00
11041;BME280;5573;49.592;8.662;2022-10-16T03:21:07;99665.50;;;16.18;100.00
11041;BME280;5573;49.592;8.662;2022-10-16T03:23:55;99669.28;;;16.04;100.00
11041;BME280;5573;49.592;8.662;2022-10-16T03:26:45;99677.16;;;16.09;100.00
11041;BME280;5573;49.592;8.662;2022-10-16T03:29:33;99674.28;;;16.13;100.00
11041;BME280;5573;49.592;8.662;2022-10-16T03:32:21;99682.63;;;16.13;100.00
11041;BME280;5573;49.592;8.662;2022-10-16T03:35:09;99673.50;;;16.12;100.00
11041;BME280;5573;49.592;8.662;2022-10-16T03:37:57;99674.97;;;16.20;100.00
11041;BME280;5573;49.592;8.662;2022-10-16T03:40:45;99671.81;;;16.18;100.00
11041;BME280;5573;49.592;8.662;2022-10-16T03:43:34;99674.59;;;16.18;100.00
11041;BME280;5573;49.592;8.662;2022-10-16T03:46:22;99671.19;;;16.11;100.00
11041;BME280;5573;49.592;8.662;2022-10-16T03:49:10;99673.97;;;16.11;100.00
11041;BME280;5573;49.592;8.662;2022-10-16T03:51:58;99676.72;;;16.11;100.00
11041;BME280;5573;49.592;8.662;2022-10-16T03:54:46;99683.78;;;16.15;100.00
11041;BME280;5573;49.592;8.662;2022-10-16T03:57:34;99691.38;;;16.11;100.00
11041;BME280;5573;49.592;8.662;2022-10-16T04:00:23;99694.53;;;16.13;100.00
11041;BME280;5573;49.592;8.662;2022-10-16T04:03:11;99702.03;;;16.13;100.00
11041;BME280;5573;49.592;8.662;2022-10-16T04:05:59;99705.19;;;16.15;100.00
11041;BME280;5573;49.592;8.662;2022-10-16T04:08:47;99698.44;;;16.16;100.00
11041;BME280;5573;49.592;8.662;2022-10-16T04:11:35;99697.56;;;16.19;100.00
11041;BME280;5573;49.592;8.662;2022-10-16T04:14:23;99692.94;;;16.12;100.00
11041;BME280;5573;49.592;8.662;2022-10-16T04:17:12;99698.06;;;16.14;100.00
11041;BME280;5573;49.592;8.662;2022-10-16T04:20:01;99713.50;;;16.15;100.00
11041;BME280;5573;49.592;8.662;2022-10-16T04:22:49;99713.13;;;16.13;100.00
11041;BME280;5573;49.592;8.662;2022-10-16T04:25:36;99704.91;;;16.09;100.00
11041;BME280;5573;49.592;8.662;2022-10-16T04:28:24;99716.72;;;16.13;100.00
11041;BME280;5573;49.592;8.662;2022-10-16T04:31:13;99715.59;;;16.11;100.00
11041;BME280;5573;49.592;8.662;2022-10-16T04:34:02;99719.06;;;16.15;100.00
11041;BME280;5573;49.592;8.662;2022-10-16T04:36:50;99706.22;;;16.01;100.00
11041;BME280;5573;49.592;8.662;2022-10-16T04:39:38;99703.44;;;16.01;100.00
11041;BME280;5573;49.592;8.662;2022-10-16T04:42:26;99708.50;;;16.06;100.00
11041;BME280;5573;49.592;8.662;2022-10-16T04:45:14;99713.28;;;16.05;100.00
11041;BME280;5573;49.592;8.662;2022-10-16T04:48:03;99643.78;;;15.62;100.00
11041;BME280;5573;49.592;8.662;2022-10-16T04:50:52;99714.94;;;15.99;100.00
11041;BME280;5573;49.592;8.662;2022-10-16T04:53:41;99713.09;;;15.93;100.00
11041;BME280;5573;49.592;8.662;2022-10-16T04:56:28;99707.91;;;15.95;100.00
11041;BME280;5573;49.592;8.662;2022-10-16T04:59:17;99705.13;;;15.95;100.00
11041;BME280;5573;49.592;8.662;2022-10-16T05:02:05;99699.63;;;15.91;100.00
11041;BME280;5573;49.592;8.662;2022-10-16T05:04:53;99704.41;;;15.91;100.00
11041;BME280;5573;49.592;8.662;2022-10-16T05:07:42;99695.28;;;15.90;100.00
11041;BME280;5573;49.592;8.662;2022-10-16T05:10:30;99692.56;;;15.87;100.00
11041;BME280;5573;49.592;8.662;2022-10-16T05:13:18;99697.16;;;15.97;100.00
11041;BME280;5573;49.592;8.662;2022-10-16T05:16:06;99709.78;;;16.01;100.00
11041;BME280;5573;49.592;8.662;2022-10-16T05:18:54;99709.31;;;16.07;100.00
11041;BME280;5573;49.592;8.662;2022-10-16T05:22:03;99705.63;;;16.13;100.00
11041;BME280;5573;49.592;8.662;2022-10-16T05:24:52;99707.13;;;16.18;100.00
11041;BME280;5573;49.592;8.662;2022-10-16T05:27:40;99707.84;;;16.22;100.00
11041;BME280;5573;49.592;8.662;2022-10-16T05:30:28;99697.88;;;16.01;100.00
11041;BME280;5573;49.592;8.662;2022-10-16T05:33:16;99685.34;;;15.93;100.00
11041;BME280;5573;49.592;8.662;2022-10-16T05:36:05;99682.06;;;15.98;100.00
11041;BME280;5573;49.592;8.662;2022-10-16T05:38:54;99681.66;;;15.99;100.00
11041;BME280;5573;49.592;8.662;2022-10-16T05:41:43;99686.47;;;15.95;100.00
11041;BME280;5573;49.592;8.662;2022-10-16T05:44:32;99682.38;;;16.03;100.00
11041;BME280;5573;49.592;8.662;2022-10-16T05:47:25;99694.72;;;16.02;100.00
11041;BME280;5573;49.592;8.662;2022-10-16T05:50:13;99701.56;;;16.18;100.00
11041;BME280;5573;49.592;8.662;2022-10-16T05:53:01;99717.31;;;16.24;100.00
11041;BME280;5573;49.592;8.662;2022-10-16T05:55:51;99723.78;;;16.18;100.00
11041;BME280;5573;49.592;8.662;2022-10-16T05:58:41;99734.47;;;16.19;100.00
11041;BME280;5573;49.592;8.662;2022-10-16T06:01:31;99740.38;;;16.21;100.00
11041;BME280;5573;49.592;8.662;2022-10-16T06:03:59;99749.91;;;16.20;100.00
11041;BME280;5573;49.592;8.662;2022-10-16T06:06:28;99754.72;;;16.16;100.00
11041;BME280;5573;49.592;8.662;2022-10-16T06:08:56;99750.03;;;16.13;100.00
11041;BME280;5573;49.592;8.662;2022-10-16T06:11:28;99745.75;;;16.09;100.00
11041;BME280;5573;49.592;8.662;2022-10-16T06:13:59;99750.13;;;16.06;100.00
11041;BME280;5573;49.592;8.662;2022-10-16T06:16:29;99760.06;;;16.03;100.00
11041;BME280;5573;49.592;8.662;2022-10-16T06:18:57;99779.03;;;16.09;100.00
11041;BME280;5573;49.592;8.662;2022-10-16T06:21:27;99763.69;;;16.00;100.00
11041;BME280;5573;49.592;8.662;2022-10-16T06:23:56;99725.16;;;15.79;100.00
11041;BME280;5573;49.592;8.662;2022-10-16T06:26:26;99770.44;;;15.99;100.00
11041;BME280;5573;49.592;8.662;2022-10-16T06:28:55;99787.00;;;16.07;100.00
11041;BME280;5573;49.592;8.662;2022-10-16T06:31:25;99779.41;;;16.11;100.00
11041;BME280;5573;49.592;8.662;2022-10-16T06:33:55;99778.50;;;16.17;100.00
11041;BME280;5573;49.592;8.662;2022-10-16T06:36:23;99790.34;;;16.21;100.00
11041;BME280;5573;49.592;8.662;2022-10-16T06:38:51;99790.00;;;16.16;100.00
11041;BME280;5573;49.592;8.662;2022-10-16T06:41:21;99784.22;;;16.07;100.00
11041;BME280;5573;49.592;8.662;2022-10-16T06:43:49;99785.66;;;16.15;100.00
11041;BME280;5573;49.592;8.662;2022-10-16T06:46:19;99782.50;;;16.13;100.00
11041;BME280;5573;49.592;8.662;2022-10-16T06:48:48;99791.09;;;16.22;100.00
11041;BME280;5573;49.592;8.662;2022-10-16T06:51:17;99793.47;;;16.23;100.00
11041;BME280;5573;49.592;8.662;2022-10-16T06:53:47;99790.00;;;16.16;100.00
11041;BME280;5573;49.592;8.662;2022-10-16T06:56:32;99798.84;;;16.34;100.00
11041;BME280;5573;49.592;8.662;2022-10-16T06:59:00;99813.88;;;16.37;100.00
11041;BME280;5573;49.592;8.662;2022-10-16T07:01:28;99818.34;;;16.54;100.00
11041;BME280;5573;49.592;8.662;2022-10-16T07:03:58;99815.00;;;16.63;100.00
11041;BME280;5573;49.592;8.662;2022-10-16T07:06:26;99802.72;;;16.64;100.00
11041;BME280;5573;49.592;8.662;2022-10-16T07:08:54;99816.97;;;16.66;100.00
11041;BME280;5573;49.592;8.662;2022-10-16T07:11:23;99814.09;;;16.70;100.00
11041;BME280;5573;49.592;8.662;2022-10-16T07:13:51;99815.75;;;16.67;100.00
11041;BME280;5573;49.592;8.662;2022-10-16T07:16:24;99822.09;;;16.67;100.00
11041;BME280;5573;49.592;8.662;2022-10-16T07:18:53;99831.22;;;16.68;100.00
11041;BME280;5573;49.592;8.662;2022-10-16T07:21:27;99837.91;;;16.71;100.00
11041;BME280;5573;49.592;8.662;2022-10-16T07:23:58;99841.59;;;16.64;100.00
11041;BME280;5573;49.592;8.662;2022-10-16T07:26:27;99839.06;;;16.73;100.00
11041;BME280;5573;49.592;8.662;2022-10-16T07:28:56;99833.13;;;16.71;100.00
11041;BME280;5573;49.592;8.662;2022-10-16T07:31:24;99851.50;;;16.89;100.00
11041;BME280;5573;49.592;8.662;2022-10-16T07:33:53;99858.75;;;17.06;100.00
11041;BME280;5573;49.592;8.662;2022-10-16T07:36:21;99861.75;;;17.15;100.00
11041;BME280;5573;49.592;8.662;2022-10-16T07:38:50;99864.41;;;17.22;100.00
11041;BME280;5573;49.592;8.662;2022-10-16T07:41:24;99870.34;;;17.24;100.00
11041;BME280;5573;49.592;8.662;2022-10-16T07:43:53;99858.56;;;17.17;100.00
11041;BME280;5573;49.592;8.662;2022-10-16T07:46:22;99874.06;;;17.38;100.00
11041;BME280;5573;49.592;8.662;2022-10-16T07:48:50;99876.31;;;17.43;100.00
11041;BME280;5573;49.592;8.662;2022-10-16T07:51:20;99885.38;;;17.47;100.00
11041;BME280;5573;49.592;8.662;2022-10-16T07:53:48;99881.03;;;17.46;100.00
11041;BME280;5573;49.592;8.662;2022-10-16T07:56:18;99881.53;;;17.41;100.00
11041;BME280;5573;49.592;8.662;2022-10-16T07:58:46;99883.69;;;17.33;100.00
11041;BME280;5573;49.592;8.662;2022-10-16T08:01:16;99888.63;;;17.22;100.00
11041;BME280;5573;49.592;8.662;2022-10-16T08:03:46;99889.28;;;17.30;100.00
11041;BME280;5573;49.592;8.662;2022-10-16T08:06:14;99885.16;;;17.38;100.00
11041;BME280;5573;49.592;8.662;2022-10-16T08:08:42;99871.63;;;17.40;100.00
11041;BME280;5573;49.592;8.662;2022-10-16T08:11:10;99889.59;;;17.55;100.00
11041;BME280;5573;49.592;8.662;2022-10-16T08:13:39;99903.28;;;17.46;100.00
11041;BME280;5573;49.592;8.662;2022-10-16T08:16:07;99913.69;;;17.42;100.00
11041;BME280;5573;49.592;8.662;2022-10-16T08:18:37;99900.34;;;17.33;100.00
11041;BME280;5573;49.592;8.662;2022-10-16T08:21:06;99903.97;;;17.30;100.00
11041;BME280;5573;49.592;8.662;2022-10-16T08:23:34;99899.47;;;17.16;100.00
11041;BME280;5573;49.592;8.662;2022-10-16T08:26:04;99899.13;;;17.14;100.00
11041;BME280;5573;49.592;8.662;2022-10-16T08:28:32;99902.31;;;17.13;100.00
11041;BME280;5573;49.592;8.662;2022-10-16T08:31:07;99908.88;;;16.99;100.00
11041;BME280;5573;49.592;8.662;2022-10-16T08:33:35;99928.97;;;16.86;100.00
11041;BME280;5573;49.592;8.662;2022-10-16T08:36:04;99922.69;;;16.82;100.00
11041;BME280;5573;49.592;8.662;2022-10-16T08:38:33;99923.47;;;16.79;100.00
11041;BME280;5573;49.592;8.662;2022-10-16T08:41:15;99920.69;;;16.83;100.00
11041;BME280;5573;49.592;8.662;2022-10-16T08:43:58;99928.97;;;16.86;100.00
11041;BME280;5573;49.592;8.662;2022-10-16T08:46:39;99939.63;;;16.88;100.00
11041;BME280;5573;49.592;8.662;2022-10-16T08:49:16;99961.56;;;16.82;100.00
11041;BME280;5573;49.592;8.662;2022-10-16T08:51:44;99977.47;;;16.78;100.00
11041;BME280;5573;49.592;8.662;2022-10-16T08:54:21;99983.03;;;16.78;100.00
11041;BME280;5573;49.592;8.662;2022-10-16T08:56:50;100002.44;;;16.82;100.00
11041;BME280;5573;49.592;8.662;2022-10-16T08:59:18;100008.91;;;16.72;100.00
11041;BME280;5573;49.592;8.662;2022-10-16T09:01:50;99987.94;;;16.67;100.00
11041;BME280;5573;49.592;8.662;2022-10-16T09:04:38;99982.47;;;16.63;100.00
11041;BME280;5573;49.592;8.662;2022-10-16T09:07:16;99998.28;;;16.66;100.00
11041;BME280;5573;49.592;8.662;2022-10-16T09:09:54;100003.81;;;16.66;100.00
11041;BME280;5573;49.592;8.662;2022-10-16T09:12:29;99993.13;;;16.65;100.00
11041;BME280;5573;49.592;8.662;2022-10-16T09:15:02;100018.97;;;16.62;100.00
11041;BME280;5573;49.592;8.662;2022-10-16T09:17:49;100012.03;;;16.74;100.00
11041;BME280;5573;49.592;8.662;2022-10-16T09:20:28;100022.16;;;16.60;100.00
11041;BME280;5573;49.592;8.662;2022-10-16T09:23:10;100022.50;;;16.66;100.00
11041;BME280;5573;49.592;8.662;2022-10-16T09:25:43;100024.34;;;16.76;100.00
11041;BME280;5573;49.592;8.662;2022-10-16T09:28:11;100021.13;;;16.78;100.00
11041;BME280;5573;49.592;8.662;2022-10-16T09:30:39;100000.16;;;16.73;100.00
11041;BME280;5573;49.592;8.662;2022-10-16T09:33:10;99986.25;;;16.73;100.00
11041;BME280;5573;49.592;8.662;2022-10-16T09:35:40;100000.91;;;17.04;100.00
11041;BME280;5573;49.592;8.662;2022-10-16T09:38:20;99999.72;;;17.29;100.00
11041;BME280;5573;49.592;8.662;2022-10-16T09:40:49;99998.38;;;17.61;100.00
11041;BME280;5573;49.592;8.662;2022-10-16T09:43:33;100005.97;;;17.80;100.00
11041;BME280;5573;49.592;8.662;2022-10-16T09:46:03;99991.63;;;17.82;100.00
11041;BME280;5573;49.592;8.662;2022-10-16T09:48:36;99997.03;;;17.69;100.00
11041;BME280;5573;49.592;8.662;2022-10-16T09:51:06;100000.53;;;17.73;100.00
11041;BME280;5573;49.592;8.662;2022-10-16T09:53:39;100001.69;;;17.76;100.00
11041;BME280;5573;49.592;8.662;2022-10-16T09:56:10;100003.19;;;18.00;100.00
11041;BME280;5573;49.592;8.662;2022-10-16T09:58:43;100003.28;;;17.97;100.00
11041;BME280;5573;49.592;8.662;2022-10-16T10:01:13;100004.22;;;17.90;100.00
11041;BME280;5573;49.592;8.662;2022-10-16T10:03:43;100000.81;;;17.79;100.00
11041;BME280;5573;49.592;8.662;2022-10-16T10:06:18;100009.41;;;17.64;100.00
11041;BME280;5573;49.592;8.662;2022-10-16T10:08:56;100007.97;;;17.80;100.00
11041;BME280;5573;49.592;8.662;2022-10-16T10:11:47;100006.72;;;17.81;100.00
11041;BME280;5573;49.592;8.662;2022-10-16T10:14:18;99989.44;;;17.93;100.00
11041;BME280;5573;49.592;8.662;2022-10-16T10:16:47;99999.94;;;18.05;100.00
11041;BME280;5573;49.592;8.662;2022-10-16T10:19:18;100008.72;;;18.24;100.00
11041;BME280;5573;49.592;8.662;2022-10-16T10:21:46;99999.66;;;18.56;100.00
11041;BME280;5573;49.592;8.662;2022-10-16T10:24:15;100001.94;;;18.61;100.00
11041;BME280;5573;49.592;8.662;2022-10-16T10:26:49;100005.69;;;18.91;100.00
11041;BME280;5573;49.592;8.662;2022-10-16T10:29:26;100004.97;;;19.03;100.00
11041;BME280;5573;49.592;8.662;2022-10-16T10:32:03;100012.75;;;19.12;100.00
11041;BME280;5573;49.592;8.662;2022-10-16T10:34:45;100021.63;;;19.40;100.00
11041;BME280;5573;49.592;8.662;2022-10-16T10:37:30;100019.50;;;19.60;100.00
11041;BME280;5573;49.592;8.662;2022-10-16T10:40:08;100022.47;;;19.69;100.00
11041;BME280;5573;49.592;8.662;2022-10-16T10:42:46;100014.72;;;19.61;100.00
11041;BME280;5573;49.592;8.662;2022-10-16T10:45:20;100014.19;;;19.82;100.00
11041;BME280;5573;49.592;8.662;2022-10-16T10:48:01;100008.81;;;19.42;100.00
11041;BME280;5573;49.592;8.662;2022-10-16T10:50:38;100015.28;;;19.23;100.00
11041;BME280;5573;49.592;8.662;2022-10-16T10:53:15;100020.06;;;19.39;100.00
11041;BME280;5573;49.592;8.662;2022-10-16T10:55:51;100016.63;;;19.47;100.00
11041;BME280;5573;49.592;8.662;2022-10-16T10:58:43;100011.06;;;19.47;100.00
11041;BME280;5573;49.592;8.662;2022-10-16T11:01:19;100002.25;;;19.49;100.00
11041;BME280;5573;49.592;8.662;2022-10-16T11:04:06;99996.66;;;19.65;100.00
11041;BME280;5573;49.592;8.662;2022-10-16T11:06:43;99998.41;;;19.59;100.00
11041;BME280;5573;49.592;8.662;2022-10-16T11:09:15;99996.41;;;19.76;100.00
11041;BME280;5573;49.592;8.662;2022-10-16T11:11:47;99998.91;;;19.87;100.00
11041;BME280;5573;49.592;8.662;2022-10-16T11:14:19;99999.28;;;20.02;100.00
11041;BME280;5573;49.592;8.662;2022-10-16T11:16:51;99996.31;;;19.80;100.00
11041;BME280;5573;49.592;8.662;2022-10-16T11:19:29;99991.16;;;20.07;100.00
11041;BME280;5573;49.592;8.662;2022-10-16T11:22:05;99992.22;;;19.97;100.00
11041;BME280;5573;49.592;8.662;2022-10-16T11:24:42;100007.41;;;19.96;100.00
11041;BME280;5573;49.592;8.662;2022-10-16T11:27:17;100011.13;;;20.06;100.00
11041;BME280;5573;49.592;8.662;2022-10-16T11:29:54;100004.47;;;20.16;100.00
11041;BME280;5573;49.592;8.662;2022-10-16T11:32:27;100005.41;;;20.39;100.00
11041;BME280;5573;49.592;8.662;2022-10-16T11:34:59;100010.56;;;20.53;100.00
11041;BME280;5573;49.592;8.662;2022-10-16T11:37:33;100009.44;;;20.50;100.00
11041;BME280;5573;49.592;8.662;2022-10-16T11:40:19;100020.34;;;20.32;100.00
11041;BME280;5573;49.592;8.662;2022-10-16T11:42:52;100016.22;;;20.24;100.00
11041;BME280;5573;49.592;8.662;2022-10-16T11:45:27;100000.13;;;20.28;100.00
11041;BME280;5573;49.592;8.662;2022-10-16T11:48:01;99979.41;;;20.13;100.00
11041;BME280;5573;49.592;8.662;2022-10-16T11:50:38;99999.38;;;20.53;100.00
11041;BME280;5573;49.592;8.662;2022-10-16T11:53:15;100004.22;;;20.65;100.00
11041;BME280;5573;49.592;8.662;2022-10-16T11:55:46;100007.47;;;20.64;100.00
11041;BME280;5573;49.592;8.662;2022-10-16T11:58:20;100007.03;;;20.65;100.00
11041;BME280;5573;49.592;8.662;2022-10-16T12:00:57;100015.38;;;20.52;100.00
11041;BME280;5573;49.592;8.662;2022-10-16T12:03:30;100006.75;;;20.47;100.00
11041;BME280;5573;49.592;8.662;2022-10-16T12:06:22;100010.38;;;20.60;100.00
11041;BME280;5573;49.592;8.662;2022-10-16T12:08:55;100010.59;;;20.66;100.00
11041;BME280;5573;49.592;8.662;2022-10-16T12:11:32;100003.69;;;20.58;100.00
11041;BME280;5573;49.592;8.662;2022-10-16T12:14:06;100008.75;;;20.46;100.00
11041;BME280;5573;49.592;8.662;2022-10-16T12:16:37;100002.53;;;20.68;100.00
11041;BME280;5573;49.592;8.662;2022-10-16T12:19:13;99997.53;;;20.63;100.00
11041;BME280;5573;49.592;8.662;2022-10-16T12:21:41;100006.97;;;20.52;100.00
11041;BME280;5573;49.592;8.662;2022-10-16T12:24:22;100011.56;;;20.46;100.00
11041;BME280;5573;49.592;8.662;2022-10-16T12:26:55;100013.56;;;20.33;100.00
11041;BME280;5573;49.592;8.662;2022-10-16T12:29:29;100007.16;;;20.62;100.00
11041;BME280;5573;49.592;8.662;2022-10-16T12:31:58;100003.44;;;20.78;100.00
11041;BME280;5573;49.592;8.662;2022-10-16T12:34:28;99998.09;;;20.83;100.00
11041;BME280;5573;49.592;8.662;2022-10-16T12:37:08;99999.31;;;20.95;100.00
11041;BME280;5573;49.592;8.662;2022-10-16T12:39:38;100000.22;;;20.92;100.00
11041;BME280;5573;49.592;8.662;2022-10-16T12:42:31;100009.81;;;21.04;100.00
11041;BME280;5573;49.592;8.662;2022-10-16T12:45:01;100000.94;;;21.18;100.00
11041;BME280;5573;49.592;8.662;2022-10-16T12:47:38;100001.50;;;21.26;100.00
11041;BME280;5573;49.592;8.662;2022-10-16T12:50:26;100001.28;;;21.20;100.00
11041;BME280;5573;49.592;8.662;2022-10-16T12:52:54;99991.13;;;21.14;100.00
11041;BME280;5573;49.592;8.662;2022-10-16T12:55:24;99983.84;;;21.16;100.00
11041;BME280;5573;49.592;8.662;2022-10-16T12:58:08;100008.88;;;21.45;100.00
11041;BME280;5573;49.592;8.662;2022-10-16T13:00:44;100000.16;;;21.78;100.00
11041;BME280;5573;49.592;8.662;2022-10-16T13:03:34;99988.38;;;22.05;100.00
11041;BME280;5573;49.592;8.662;2022-10-16T13:06:15;100001.28;;;22.25;100.00
11041;BME280;5573;49.592;8.662;2022-10-16T13:12:14;100009.09;;;22.30;100.00
11041;BME280;5573;49.592;8.662;2022-10-16T13:14:58;100003.94;;;22.06;100.00
11041;BME280;5573;49.592;8.662;2022-10-16T13:17:35;100007.91;;;21.96;100.00
11041;BME280;5573;49.592;8.662;2022-10-16T13:20:14;100002.25;;;21.87;100.00
11041;BME280;5573;49.592;8.662;2022-10-16T13:22:50;100005.03;;;21.87;100.00
11041;BME280;5573;49.592;8.662;2022-10-16T13:25:28;100001.03;;;21.53;100.00
11041;BME280;5573;49.592;8.662;2022-10-16T13:28:01;99985.84;;;21.28;100.00
11041;BME280;5573;49.592;8.662;2022-10-16T13:30:31;99989.75;;;21.18;100.00
11041;BME280;5573;49.592;8.662;2022-10-16T13:33:01;99997.19;;;20.86;100.00
11041;BME280;5573;49.592;8.662;2022-10-16T13:35:31;100008.81;;;20.72;100.00
11041;BME280;5573;49.592;8.662;2022-10-16T13:38:12;100008.22;;;20.51;100.00
11041;BME280;5573;49.592;8.662;2022-10-16T13:40:51;100011.91;;;20.48;100.00
11041;BME280;5573;49.592;8.662;2022-10-16T13:43:24;100015.78;;;20.38;100.00
11041;BME280;5573;49.592;8.662;2022-10-16T13:45:58;100018.38;;;20.33;100.00
11041;BME280;5573;49.592;8.662;2022-10-16T13:48:26;100004.75;;;20.35;100.00
11041;BME280;5573;49.592;8.662;2022-10-16T13:51:05;100010.41;;;20.31;100.00
11041;BME280;5573;49.592;8.662;2022-10-16T13:53:34;100002.00;;;20.18;100.00
11041;BME280;5573;49.592;8.662;2022-10-16T13:56:04;100008.69;;;20.08;100.00
11041;BME280;5573;49.592;8.662;2022-10-16T13:58:34;100015.59;;;20.03;100.00
11041;BME280;5573;49.592;8.662;2022-10-16T14:01:03;100002.03;;;19.89;100.00
11041;BME280;5573;49.592;8.662;2022-10-16T14:03:33;100027.41;;;19.95;100.00
11041;BME280;5573;49.592;8.662;2022-10-16T14:06:03;100021.97;;;20.04;100.00
11041;BME280;5573;49.592;8.662;2022-10-16T14:08:35;100010.69;;;20.07;100.00